createdAt,value
2017-10-30T00:00:26.611Z,5.40
2017-10-30T00:02:54.982Z,3.83
2017-10-30T00:05:23.315Z,4.60
2017-10-30T00:07:51.651Z,3.53
2017-10-30T00:10:19.995Z,5.10
2017-10-30T00:12:48.339Z,3.57
2017-10-30T00:15:16.677Z,4.40
2017-10-30T00:17:45.056Z,3.87
2017-10-30T00:20:13.430Z,4.83
2017-10-30T00:22:41.771Z,4.70
2017-10-30T00:25:10.133Z,4.10
2017-10-30T00:27:38.500Z,4.27
2017-10-30T00:30:06.879Z,4.23
2017-10-30T00:32:35.233Z,5.13
2017-10-30T00:35:03.714Z,4.00
2017-10-30T00:37:32.054Z,4.13
2017-10-30T00:40:00.390Z,3.47
2017-10-30T00:42:28.743Z,3.90
2017-10-30T00:44:57.077Z,4.10
2017-10-30T00:47:25.442Z,4.50
2017-10-30T00:49:53.790Z,3.87
2017-10-30T00:52:22.148Z,3.73
2017-10-30T00:54:50.496Z,3.43
2017-10-30T00:57:18.832Z,4.03
2017-10-30T00:59:47.177Z,3.73
2017-10-30T01:02:15.511Z,4.87
2017-10-30T01:04:43.869Z,3.10
2017-10-30T01:07:12.206Z,3.93
2017-10-30T01:09:40.571Z,3.60
2017-10-30T01:12:08.930Z,4.63
2017-10-30T01:14:37.306Z,3.20
2017-10-30T01:17:05.639Z,3.77
2017-10-30T01:19:34.012Z,3.83
2017-10-30T01:22:02.346Z,3.37
2017-10-30T01:24:30.691Z,3.60
2017-10-30T01:26:59.021Z,3.20
2017-10-30T01:29:27.398Z,3.43
2017-10-30T01:31:55.795Z,2.93
2017-10-30T01:34:24.140Z,3.20
2017-10-30T01:36:52.510Z,3.80
2017-10-30T01:39:20.871Z,2.87
2017-10-30T01:41:49.215Z,3.80
2017-10-30T01:44:17.554Z,3.43
2017-10-30T01:46:45.910Z,2.90
2017-10-30T01:49:14.278Z,3.80
2017-10-30T01:51:42.628Z,3.00
2017-10-30T01:54:11.009Z,3.10
2017-10-30T01:56:39.350Z,3.13
2017-10-30T01:59:07.711Z,3.80
2017-10-30T02:01:36.057Z,3.43
2017-10-30T02:04:04.436Z,4.07
2017-10-30T02:06:32.773Z,4.10
2017-10-30T02:09:01.116Z,3.50
2017-10-30T02:11:29.471Z,4.13
2017-10-30T02:13:57.811Z,4.23
2017-10-30T02:16:26.154Z,3.50
2017-10-30T02:18:54.495Z,3.40
2017-10-30T02:21:22.842Z,4.10
2017-10-30T02:23:51.207Z,3.93
2017-10-30T02:26:19.553Z,3.87
2017-10-30T02:28:47.915Z,3.60
2017-10-30T02:31:16.260Z,3.30
2017-10-30T02:33:44.597Z,3.30
2017-10-30T02:36:13.072Z,3.47
2017-10-30T02:38:41.400Z,3.67
2017-10-30T02:41:09.742Z,2.80
2017-10-30T02:43:38.108Z,3.37
2017-10-30T02:46:06.454Z,3.77
2017-10-30T02:48:34.883Z,3.40
2017-10-30T02:51:03.226Z,3.30
2017-10-30T02:53:31.775Z,3.30
2017-10-30T02:56:00.127Z,3.43
2017-10-30T02:58:28.467Z,4.10
2017-10-30T03:00:56.847Z,3.83
2017-10-30T03:03:25.186Z,4.10
2017-10-30T03:05:53.562Z,2.97
2017-10-30T03:08:21.905Z,4.07
2017-10-30T03:10:50.239Z,3.63
2017-10-30T03:13:18.584Z,2.70
2017-10-30T03:15:46.956Z,3.80
2017-10-30T03:18:15.299Z,3.27
2017-10-30T03:20:43.645Z,3.67
2017-10-30T03:23:11.990Z,3.10
2017-10-30T03:25:40.356Z,3.70
2017-10-30T03:28:08.702Z,3.13
2017-10-30T03:30:37.085Z,3.80
2017-10-30T03:33:05.429Z,3.80
2017-10-30T03:35:33.792Z,3.70
2017-10-30T03:38:02.137Z,2.63
2017-10-30T03:40:30.484Z,3.57
2017-10-30T03:42:58.832Z,2.50
2017-10-30T03:45:27.178Z,3.73
2017-10-30T03:47:55.529Z,3.60
2017-10-30T03:50:23.870Z,2.90
2017-10-30T03:52:52.247Z,2.90
2017-10-30T03:55:20.587Z,2.97
2017-10-30T03:57:48.962Z,3.90
2017-10-30T04:00:17.330Z,2.57
2017-10-30T04:02:45.688Z,2.77
2017-10-30T04:05:14.056Z,3.07
2017-10-30T04:07:42.422Z,4.33
2017-10-30T04:10:11.655Z,2.93
2017-10-30T04:12:40.027Z,3.43
2017-10-30T04:15:08.363Z,3.90
2017-10-30T04:17:36.711Z,2.90
2017-10-30T04:20:05.082Z,3.40
2017-10-30T04:22:33.454Z,3.70
2017-10-30T04:25:01.830Z,3.53
2017-10-30T04:27:30.198Z,3.33
2017-10-30T04:29:58.543Z,3.97
2017-10-30T04:32:26.923Z,4.27
2017-10-30T04:34:55.299Z,2.60
2017-10-30T04:37:23.674Z,3.60
2017-10-30T04:39:52.027Z,3.10
2017-10-30T04:42:20.362Z,2.43
2017-10-30T04:44:48.706Z,3.17
2017-10-30T04:47:17.043Z,3.70
2017-10-30T04:49:46.094Z,3.70
2017-10-30T04:52:14.435Z,3.17
2017-10-30T04:54:42.807Z,3.90
2017-10-30T04:57:11.168Z,2.73
2017-10-30T04:59:39.552Z,3.27
2017-10-30T05:02:07.900Z,3.23
2017-10-30T05:04:36.247Z,3.97
2017-10-30T05:07:04.587Z,3.17
2017-10-30T05:09:32.930Z,3.53
2017-10-30T05:12:01.288Z,3.60
2017-10-30T05:14:29.651Z,3.67
2017-10-30T05:16:57.991Z,3.87
2017-10-30T05:19:26.355Z,3.90
2017-10-30T05:21:54.737Z,2.53
2017-10-30T05:24:23.116Z,4.07
2017-10-30T05:26:51.459Z,3.57
2017-10-30T05:29:19.801Z,3.20
2017-10-30T05:31:48.151Z,3.40
2017-10-30T05:34:16.527Z,3.25
2017-10-30T05:36:44.875Z,2.83
2017-10-30T05:39:13.235Z,3.60
2017-10-30T05:41:41.581Z,3.77
2017-10-30T05:44:09.961Z,3.67
2017-10-30T05:46:38.305Z,4.20
2017-10-30T05:49:06.671Z,4.33
2017-10-30T05:51:35.015Z,4.67
2017-10-30T05:54:03.369Z,4.10
2017-10-30T05:56:31.727Z,4.50
2017-10-30T05:59:00.075Z,4.20
2017-10-30T06:01:28.407Z,4.00
2017-10-30T06:03:56.746Z,4.23
2017-10-30T06:06:25.093Z,3.70
2017-10-30T06:08:53.458Z,3.90
2017-10-30T06:11:21.805Z,4.40
2017-10-30T06:13:50.175Z,3.10
2017-10-30T06:16:18.515Z,4.27
2017-10-30T06:18:46.870Z,3.65
2017-10-30T06:21:15.219Z,3.50
2017-10-30T06:23:43.563Z,4.17
2017-10-30T06:26:11.911Z,3.50
2017-10-30T06:28:40.251Z,3.23
2017-10-30T06:31:08.617Z,3.50
2017-10-30T06:33:36.963Z,3.40
2017-10-30T06:36:05.352Z,3.10
2017-10-30T06:38:33.686Z,2.87
2017-10-30T06:41:02.036Z,3.30
2017-10-30T06:43:30.374Z,3.60
2017-10-30T06:45:58.748Z,3.47
2017-10-30T06:48:27.116Z,3.40
2017-10-30T06:50:55.488Z,4.37
2017-10-30T06:53:23.818Z,5.20
2017-10-30T06:55:52.186Z,3.83
2017-10-30T06:58:20.530Z,3.63
2017-10-30T07:00:48.893Z,3.60
2017-10-30T07:03:17.234Z,3.40
2017-10-30T07:05:45.587Z,4.10
2017-10-30T07:08:13.941Z,3.90
2017-10-30T07:10:42.319Z,3.53
2017-10-30T07:13:10.662Z,4.90
2017-10-30T07:15:39.012Z,4.07
2017-10-30T07:18:07.400Z,6.27
2017-10-30T07:20:35.763Z,3.10
2017-10-30T07:23:04.103Z,5.20
2017-10-30T07:25:32.459Z,3.47
2017-10-30T07:28:00.809Z,2.67
2017-10-30T07:30:29.155Z,3.40
2017-10-30T07:32:57.527Z,2.83
2017-10-30T07:35:25.906Z,2.93
2017-10-30T07:37:54.255Z,2.73
2017-10-30T07:40:22.601Z,2.90
2017-10-30T07:42:50.946Z,3.10
2017-10-30T07:45:19.281Z,3.40
2017-10-30T07:47:47.658Z,3.50
2017-10-30T07:50:15.998Z,2.90
2017-10-30T07:52:44.341Z,2.60
2017-10-30T07:55:12.702Z,2.80
2017-10-30T07:57:41.048Z,3.70
2017-10-30T08:00:09.432Z,2.83
2017-10-30T08:02:37.792Z,3.13
2017-10-30T08:05:06.136Z,2.53
2017-10-30T08:07:34.467Z,2.30
2017-10-30T08:10:02.808Z,2.13
2017-10-30T08:12:31.142Z,2.93
2017-10-30T08:14:59.515Z,3.23
2017-10-30T08:17:27.855Z,2.30
2017-10-30T08:19:56.188Z,2.17
2017-10-30T08:22:24.522Z,2.00
2017-10-30T08:24:52.888Z,2.27
2017-10-30T08:27:21.259Z,2.93
2017-10-30T08:29:49.599Z,2.63
2017-10-30T08:32:17.969Z,2.43
2017-10-30T08:34:46.294Z,2.00
2017-10-30T08:37:14.631Z,2.00
2017-10-30T08:39:42.966Z,2.37
2017-10-30T08:42:11.335Z,2.27
2017-10-30T08:44:39.970Z,2.60
2017-10-30T08:47:08.320Z,3.83
2017-10-30T08:49:36.651Z,2.27
2017-10-30T08:52:04.996Z,2.50
2017-10-30T08:54:33.326Z,1.70
2017-10-30T08:57:01.660Z,2.57
2017-10-30T08:59:29.994Z,2.60
2017-10-30T09:01:58.330Z,2.23
2017-10-30T09:04:26.687Z,2.70
2017-10-30T09:06:55.023Z,1.80
2017-10-30T09:09:23.381Z,2.43
2017-10-30T09:11:51.708Z,1.73
2017-10-30T09:14:20.051Z,3.70
2017-10-30T09:16:48.378Z,2.37
2017-10-30T09:19:16.713Z,2.03
2017-10-30T09:21:45.081Z,2.60
2017-10-30T09:24:13.475Z,2.60
2017-10-30T09:26:41.814Z,2.30
2017-10-30T09:29:10.194Z,2.57
2017-10-30T09:31:38.559Z,2.50
2017-10-30T09:34:06.885Z,2.70
2017-10-30T09:36:35.254Z,2.47
2017-10-30T09:39:03.642Z,2.87
2017-10-30T09:41:31.967Z,2.80
2017-10-30T09:44:00.304Z,3.30
2017-10-30T09:46:28.644Z,2.33
2017-10-30T09:48:57.011Z,3.00
2017-10-30T09:51:25.344Z,3.20
2017-10-30T09:53:53.704Z,2.20
2017-10-30T11:53:06.762Z,1.90
2017-10-30T11:55:35.094Z,1.90
2017-10-30T11:58:03.435Z,2.07
2017-10-30T12:00:31.770Z,1.80
2017-10-30T12:03:00.111Z,2.47
2017-10-30T12:05:28.438Z,1.50
2017-10-30T12:07:56.801Z,2.27
2017-10-30T12:10:25.172Z,1.80
2017-10-30T12:12:53.562Z,2.47
2017-10-30T12:15:21.890Z,1.83
2017-10-30T12:17:50.255Z,1.70
2017-10-30T12:20:18.579Z,2.30
2017-10-30T12:22:46.915Z,2.03
2017-10-30T12:25:15.250Z,3.60
2017-10-30T12:27:43.595Z,1.40
2017-10-30T12:30:11.922Z,1.47
2017-10-30T12:32:40.259Z,1.83
2017-10-30T12:35:08.628Z,2.10
2017-10-30T12:37:36.969Z,2.53
2017-10-30T12:40:05.330Z,2.80
2017-10-30T12:42:33.668Z,1.50
2017-10-30T12:45:02.004Z,1.87
2017-10-30T12:47:30.341Z,1.57
2017-10-30T12:49:58.716Z,2.03
2017-10-30T12:52:27.047Z,2.57
2017-10-30T12:54:55.378Z,1.43
2017-10-30T12:57:23.705Z,1.63
2017-10-30T12:59:52.038Z,1.67
2017-10-30T13:02:20.370Z,1.43
2017-10-30T13:04:48.702Z,1.63
2017-10-30T13:07:17.082Z,2.13
2017-10-30T13:09:45.410Z,1.37
2017-10-30T13:12:13.771Z,1.87
2017-10-30T13:14:42.100Z,1.70
2017-10-30T13:17:10.444Z,2.20
2017-10-30T13:19:38.784Z,1.70
2017-10-30T13:22:07.110Z,2.00
2017-10-30T13:24:35.444Z,2.13
2017-10-30T13:27:03.772Z,1.67
2017-10-30T13:29:32.135Z,2.03
2017-10-30T13:32:00.476Z,1.73
2017-10-30T13:34:28.813Z,1.87
2017-10-30T13:36:57.189Z,2.40
2017-10-30T13:39:25.519Z,2.13
2017-10-30T13:41:53.850Z,1.80
2017-10-30T13:44:22.202Z,2.00
2017-10-30T13:46:50.536Z,2.00
2017-10-30T13:49:18.867Z,1.47
2017-10-30T13:51:47.217Z,1.63
2017-10-30T13:54:15.546Z,1.83
2017-10-30T13:56:43.883Z,1.63
2017-10-30T13:59:12.246Z,1.60
2017-10-30T14:01:40.584Z,2.63
2017-10-30T14:04:08.914Z,1.30
2017-10-30T14:06:37.241Z,1.83
2017-10-30T14:09:05.579Z,1.60
2017-10-30T14:11:33.932Z,1.50
2017-10-30T14:14:02.271Z,2.20
2017-10-30T14:16:30.615Z,1.80
2017-10-30T14:18:58.952Z,3.73
2017-10-30T14:21:27.275Z,1.90
2017-10-30T14:23:55.614Z,2.13
2017-10-30T14:26:24.139Z,1.93
2017-10-30T14:28:52.607Z,1.60
2017-10-30T14:31:20.985Z,1.60
2017-10-30T14:33:49.310Z,2.10
2017-10-30T14:36:17.634Z,2.00
2017-10-30T14:38:46.004Z,2.27
2017-10-30T14:41:14.386Z,1.60
2017-10-30T14:43:42.739Z,2.30
2017-10-30T14:46:11.070Z,2.07
2017-10-30T14:48:39.399Z,1.60
2017-10-30T14:51:07.735Z,2.43
2017-10-30T14:53:36.102Z,1.63
2017-10-30T14:56:04.456Z,1.70
2017-10-30T14:58:32.833Z,2.10
2017-10-30T15:01:01.164Z,1.93
2017-10-30T15:03:29.495Z,2.13
2017-10-30T15:05:57.827Z,2.20
2017-10-30T15:08:26.163Z,2.43
2017-10-30T15:10:54.525Z,1.40
2017-10-30T15:13:22.867Z,1.83
2017-10-30T15:15:51.199Z,2.10
2017-10-30T15:18:19.534Z,1.77
2017-10-30T15:20:47.862Z,2.10
2017-10-30T15:23:28.692Z,1.90
2017-10-30T15:25:57.040Z,1.70
2017-10-30T15:28:25.576Z,1.40
2017-10-30T15:30:54.053Z,2.00
2017-10-30T15:33:22.448Z,2.97
2017-10-30T15:35:50.795Z,2.80
2017-10-30T15:38:19.144Z,1.83
2017-10-30T15:40:47.624Z,2.20
2017-10-30T15:43:17.074Z,1.37
2017-10-30T15:45:50.517Z,2.70
2017-10-30T15:48:18.990Z,1.67
2017-10-30T15:50:47.349Z,1.20
2017-10-30T15:53:15.823Z,1.53
2017-10-30T15:55:44.280Z,1.17
2017-10-30T15:58:12.636Z,1.90
2017-10-30T16:00:40.979Z,2.00
2017-10-30T16:03:09.316Z,1.70
2017-10-30T16:05:37.655Z,1.80
2017-10-30T16:08:06.042Z,1.90
2017-10-30T16:10:34.388Z,1.40
2017-10-30T16:13:02.756Z,2.50
2017-10-30T16:18:09.424Z,2.20
2017-10-30T16:20:37.756Z,1.90
2017-10-30T16:23:06.168Z,2.23
2017-10-30T16:25:34.527Z,2.27
2017-10-30T16:28:02.911Z,2.40
2017-10-30T16:30:31.275Z,2.40
2017-10-30T16:32:59.631Z,2.40
2017-10-30T16:35:27.999Z,2.33
2017-10-30T16:37:56.363Z,1.60
2017-10-30T16:40:24.702Z,2.50
2017-10-30T16:42:53.108Z,28.00
2017-10-30T16:45:21.449Z,9.33
2017-10-30T16:47:49.797Z,14.77
2017-10-30T16:50:18.137Z,5.43
2017-10-30T16:52:46.494Z,5.80
2017-10-30T16:55:14.884Z,3.00
2017-10-30T16:57:43.263Z,2.60
2017-10-30T17:00:11.879Z,2.40
2017-10-30T17:02:40.215Z,2.00
2017-10-30T17:05:08.557Z,2.00
2017-10-30T17:07:36.931Z,3.10
2017-10-30T17:10:05.266Z,2.33
2017-10-30T17:12:33.625Z,8.70
2017-10-30T17:15:02.004Z,7.07
2017-10-30T17:17:30.399Z,13.73
2017-10-30T17:19:58.770Z,8.27
2017-10-30T17:22:27.106Z,4.30
2017-10-30T17:24:55.443Z,3.30
2017-10-30T17:27:23.778Z,3.20
2017-10-30T17:29:52.157Z,3.10
2017-10-30T17:32:20.487Z,2.90
2017-10-30T17:34:48.838Z,3.60
2017-10-30T17:37:17.190Z,4.47
2017-10-30T17:39:45.573Z,4.20
2017-10-30T17:42:13.926Z,3.30
2017-10-30T17:44:42.294Z,4.70
2017-10-30T17:47:10.658Z,4.50
2017-10-30T17:49:39.046Z,3.77
2017-10-30T17:52:07.387Z,4.13
2017-10-30T17:54:35.744Z,3.63
2017-10-30T17:57:04.103Z,3.73
2017-10-30T17:59:32.491Z,3.83
2017-10-30T18:02:00.881Z,8.23
2017-10-30T18:04:29.231Z,7.60
2017-10-30T18:06:59.943Z,13.53
2017-10-30T18:09:28.342Z,4.87
2017-10-30T18:11:56.748Z,4.40
2017-10-30T18:14:25.196Z,3.90
2017-10-30T18:16:53.580Z,3.33
2017-10-30T18:19:21.950Z,4.40
2017-10-30T18:24:51.655Z,4.67
2017-10-30T18:27:20.014Z,3.40
2017-10-30T18:29:48.415Z,3.63
2017-10-30T18:32:16.800Z,3.87
2017-10-30T18:34:45.147Z,3.40
2017-10-30T18:37:13.486Z,3.40
2017-10-30T18:39:43.037Z,3.77
2017-10-30T18:42:11.432Z,3.37
2017-10-30T18:44:39.915Z,3.90
2017-10-30T18:47:08.291Z,3.40
2017-10-30T18:49:36.653Z,4.47
2017-10-30T18:52:05.043Z,3.50
2017-10-30T18:54:33.389Z,3.90
2017-10-30T18:57:01.763Z,4.67
2017-10-30T18:59:30.106Z,4.70
2017-10-30T19:01:58.487Z,4.97
2017-10-30T19:04:26.840Z,6.60
2017-10-30T19:06:55.219Z,5.20
2017-10-30T19:09:24.499Z,3.47
2017-10-30T19:11:52.862Z,4.30
2017-10-30T19:14:21.234Z,3.80
2017-10-30T19:16:49.610Z,5.37
2017-10-30T19:19:17.950Z,8.00
2017-10-30T19:21:46.331Z,10.43
2017-10-30T19:24:15.603Z,5.10
2017-10-30T19:26:44.351Z,4.27
2017-10-30T19:29:12.754Z,4.30
2017-10-30T19:31:41.098Z,4.10
2017-10-30T19:34:09.462Z,4.20
2017-10-30T19:36:37.840Z,4.47
2017-10-30T19:39:06.239Z,4.43
2017-10-30T19:41:34.662Z,4.23
2017-10-30T19:44:03.025Z,4.97
2017-10-30T19:46:31.430Z,3.97
2017-10-30T19:48:59.795Z,4.00
2017-10-30T19:51:28.172Z,3.90
2017-10-30T19:53:56.552Z,3.10
2017-10-30T19:56:24.895Z,3.03
2017-10-30T19:58:53.239Z,3.80
2017-10-30T20:01:21.612Z,4.80
2017-10-30T20:03:49.996Z,4.13
2017-10-30T20:06:23.842Z,3.10
2017-10-30T20:08:57.864Z,3.53
2017-10-30T20:11:31.776Z,3.57
2017-10-30T20:14:00.123Z,7.03
2017-10-30T20:16:28.471Z,3.60
2017-10-30T20:18:56.839Z,3.37
2017-10-30T20:21:25.236Z,3.73
2017-10-30T20:23:54.934Z,3.53
2017-10-30T20:26:23.288Z,3.10
2017-10-30T20:28:51.662Z,3.70
2017-10-30T20:31:20.047Z,3.40
2017-10-30T20:33:48.396Z,3.60
2017-10-30T20:36:16.743Z,4.73
2017-10-30T20:38:45.140Z,4.60
2017-10-30T20:41:13.511Z,4.70
2017-10-30T20:43:41.914Z,5.53
2017-10-30T20:46:10.281Z,4.90
2017-10-30T20:48:38.614Z,5.53
2017-10-30T20:51:06.970Z,6.27
2017-10-30T20:53:35.390Z,5.63
2017-10-30T20:56:03.766Z,6.67
2017-10-30T20:58:32.135Z,6.63
2017-10-30T21:01:00.476Z,6.27
2017-10-30T21:03:28.848Z,6.10
2017-10-30T21:06:10.759Z,5.73
2017-10-30T21:08:39.288Z,6.20
2017-10-30T21:11:07.733Z,5.50
2017-10-30T21:13:36.087Z,6.10
2017-10-30T21:16:04.468Z,5.50
2017-10-30T21:18:32.913Z,5.83
2017-10-30T21:21:01.277Z,5.07
2017-10-30T21:23:29.618Z,5.90
2017-10-30T21:25:57.972Z,6.50
2017-10-30T21:28:26.322Z,5.00
2017-10-30T21:30:54.674Z,6.10
2017-10-30T21:33:23.124Z,5.20
2017-10-30T21:35:54.233Z,4.63
2017-10-30T21:38:22.640Z,6.00
2017-10-30T21:40:51.045Z,5.37
2017-10-30T21:43:19.386Z,4.73
2017-10-30T21:45:47.776Z,6.03
2017-10-30T21:48:16.139Z,6.93
2017-10-30T21:50:44.495Z,5.13
2017-10-30T21:53:12.897Z,4.20
2017-10-30T21:55:41.238Z,4.30
2017-10-30T21:58:09.599Z,4.60
2017-10-30T22:00:37.971Z,4.90
2017-10-30T22:03:06.322Z,5.10
2017-10-30T22:05:34.684Z,9.10
2017-10-30T22:08:03.077Z,8.57
2017-10-30T22:10:31.635Z,8.93
2017-10-30T22:13:00.023Z,9.13
2017-10-30T22:15:28.385Z,8.70
2017-10-30T22:18:01.588Z,8.00
2017-10-30T22:20:29.971Z,8.80
2017-10-30T22:22:58.318Z,9.03
2017-10-30T22:25:26.642Z,8.87
2017-10-30T22:27:55.006Z,9.10
2017-10-30T22:30:23.415Z,10.60
2017-10-30T22:32:51.764Z,11.67
2017-10-30T22:35:20.099Z,9.37
2017-10-30T22:37:48.451Z,11.00
2017-10-30T22:40:16.806Z,11.07
2017-10-30T22:42:45.179Z,10.37
2017-10-30T22:45:13.526Z,11.07
2017-10-30T22:47:41.883Z,10.90
2017-10-30T22:50:10.270Z,10.87
2017-10-30T22:52:38.639Z,11.10
2017-10-30T22:55:06.999Z,11.40
2017-10-30T22:57:35.675Z,11.00
2017-10-30T23:00:04.138Z,10.57
2017-10-30T23:02:32.483Z,10.60
2017-10-30T23:05:00.835Z,10.40
2017-10-30T23:07:29.204Z,9.47
2017-10-30T23:09:57.553Z,11.30
2017-10-30T23:12:25.946Z,10.80
2017-10-30T23:14:54.294Z,8.93
2017-10-30T23:17:22.658Z,9.47
2017-10-30T23:19:51.018Z,9.40
2017-10-30T23:22:19.371Z,10.47
2017-10-30T23:24:47.725Z,11.30
2017-10-30T23:27:16.117Z,11.67
2017-10-30T23:29:44.459Z,12.97
2017-10-30T23:32:12.804Z,10.20
2017-10-30T23:34:41.159Z,9.00
2017-10-30T23:37:09.503Z,8.10
2017-10-30T23:39:37.842Z,9.07
2017-10-30T23:42:06.190Z,7.93
2017-10-30T23:44:34.536Z,9.47
2017-10-30T23:47:02.871Z,8.27
2017-10-30T23:49:31.244Z,10.07
2017-10-30T23:51:59.601Z,8.93
2017-10-30T23:54:27.961Z,9.20
2017-10-30T23:56:56.306Z,10.53
2017-10-30T23:59:24.671Z,8.33
